Impacts TAF Board
For situational awareness. Not to be used for flight planning purposes.
IDs:

KLAX - Los Angeles Intl, CA, US

Issued at 0257 UTC 14 Dec 2018
Updated at 0454 UTC 14 Dec 2018
Potential Impact None Slight Moderate High
Time0353Z 14/05Z 14/06Z 14/07Z 14/08Z 14/09Z 14/10Z 14/11Z 14/12Z 14/13Z 14/14Z 14/15Z 14/16Z 14/17Z>>
Type OBS PRVL PRVL PRVL PRVL PRVL PRVL PRVL PRVL PRVL PRVL PRVL PRVL PRVL
VIS 10 >6 >6 >6 >6 >6 >6 >6 >6 >6 >6 >6 >6 >6
CIG -- -- 250 250 250 250 250 250 250 250 250 250 250 250
Cover FEW SCT BKN BKN BKN BKN BKN BKN BKN BKN BKN BKN BKN BKN
FltCat VFR VFR VFR VFR VFR VFR VFR VFR VFR VFR VFR VFR VFR VFR
WX -- -- -- -- -- -- -- -- -- -- -- -- -- --
WDir VRB VRB 90 90 90 90 90 90 90 90 90 90 90 90
WSpd 3 3 3 3 3 3 3 3 3 3 3 3 3 3
WGst -- -- -- -- -- -- -- -- -- -- -- -- -- --
Raw TAF
KLAX 140257Z 1403/1506 VRB03KT P6SM SCT250
  FM140600 09003KT P6SM BKN250
  FM142100 26007KT P6SM OVC200


Raw METAR
KLAX 140353Z VRB03KT 10SM FEW200 19/03 A3018 RMK AO2 SLP219 T01890033
KLAX 140253Z 00000KT 10SM FEW200 18/08 A3017 RMK AO2 SLP217 T01780083 53007
KLAX 140153Z 30004KT 10SM FEW200 19/08 A3016 RMK AO2 SLP214 T01940078

METAR Board
Radar Display
Forecast Discussion
For situational awareness. Not to be used for flight planning purposes.